Bangkok Bridge — 3FTZ8 — position and weather

sailwx.info

Track history (hours):
 
Tides and Currents Weather Stations Pressure Air Temp Water Temp Dewpoint Dewpoint Depression Visibility Wind Speed Wind Dir Waves Ship Positions

Bangkok Bridge

Last reported at 2014-Jul-20 00:22 UTC. Time now 2014-Jul-23 20:14 UTC.
Position N 30°10' E 123°19'.

Length 267 m; draft 12.4 m.

Type: Ship (hazmat cat A). MMSI: 353368000.

Date/timePositionNaut miles runAvg speedWind from/ knotsBaromVisibWave heightAir tempDewpointWater temp
2014-Jul-20 00:22N 30°10' E 123°19'1620.3
2014-Jul-19 23:33N 30°02' E 123°03'2220.2
2014-Jul-19 22:27N 29°47' E 122°44'1819.6
2014-Jul-19 21:33N 29°41' E 122°25'1211.5
2014-Jul-19 20:33N 29°48' E 122°14'1212.3
2014-Jul-19 19:33N 29°55' E 122°03'1110.9
2014-Jul-19 18:33N 29°57' E 121°50'1 0.5
2014-Jul-19 17:29N 29°57' E 121°50'0 0.0
2014-Jul-19 16:29N 29°57' E 121°50'0 0.0
2014-Jul-19 15:23N 29°57' E 121°50'0 0.0
2014-Jul-19 14:29N 29°57' E 121°50'0 0.0
2014-Jul-19 13:29N 29°57' E 121°50'0 0.0
2014-Jul-19 12:29N 29°57' E 121°50'0 0.0
2014-Jul-19 11:29N 29°57' E 121°50'0 0.0
2014-Jul-19 10:29N 29°57' E 121°50'0 0.0
2014-Jul-19 09:29N 29°57' E 121°50'0 0.0
2014-Jul-19 08:29N 29°57' E 121°50'0 0.0
2014-Jul-19 07:23N 29°57' E 121°50'0 0.0
2014-Jul-19 06:29N 29°57' E 121°50'0 0.0
2014-Jul-19 05:29N 29°57' E 121°50'0 0.0
2014-Jul-19 04:29N 29°57' E 121°50'0 0.0
2014-Jul-19 03:29N 29°57' E 121°50'0 0.0
2014-Jul-19 02:29N 29°57' E 121°50'0 0.0
2014-Jul-19 01:29N 29°57' E 121°50'0 0.0
2014-Jul-19 00:29N 29°57' E 121°50'0 0.0
2014-Jul-18 23:29N 29°57' E 121°50'0 0.0
2014-Jul-18 22:29N 29°57' E 121°50'1 1.3
2014-Jul-18 21:33N 29°57' E 121°52'9 9.0
2014-Jul-18 20:33N 29°56' E 122°02'1111.3
2014-Jul-18 19:33N 29°50' E 122°13'9 8.9
2014-Jul-18 18:33N 29°45' E 122°21'3 2.6
2014-Jul-18 17:30N 29°45' E 122°24'0 0.1
2014-Jul-18 16:29N 29°45' E 122°24'0 0.1
2014-Jul-18 15:30N 29°45' E 122°24'0 0.2
2014-Jul-18 14:30N 29°44' E 122°24'0 0.0
2014-Jul-18 13:30N 29°44' E 122°24'0 0.1
2014-Jul-18 12:29N 29°44' E 122°25'0 0.1
2014-Jul-18 11:30N 29°44' E 122°25'0 0.1
2014-Jul-18 10:30N 29°45' E 122°25'0 0.1
2014-Jul-18 09:17N 29°45' E 122°25'0 0.1
2014-Jul-18 08:30N 29°45' E 122°25'0 0.1
2014-Jul-18 07:30N 29°45' E 122°25'0 0.1
2014-Jul-18 06:29N 29°45' E 122°24'6 5.9
2014-Jul-18 05:33N 29°42' E 122°30'1413.9
2014-Jul-18 04:33N 29°47' E 122°45'2216.7
2014-Jul-18 03:14N 30°01' E 123°05'2019.5
2014-Jul-18 02:12N 30°21' E 123°06'1619.5
2014-Jul-18 01:22N 30°37' E 123°00'1720.2
2014-Jul-18 00:33N 30°52' E 122°53'2015.9
2014-Jul-17 23:17N 31°04' E 122°34'911.8
2014-Jul-17 22:33N 31°06' E 122°25'1713.1
2014-Jul-17 21:15N 31°13' E 122°07'1513.0
2014-Jul-17 20:06N 31°17' E 121°50'712.1
2014-Jul-17 19:33N 31°20' E 121°42'3 2.4
2014-Jul-17 18:23N 31°20' E 121°39'0 0.0
2014-Jul-17 17:23N 31°20' E 121°39'0 0.0
2014-Jul-17 16:23N 31°20' E 121°39'0 0.0
2014-Jul-17 14:11N 31°20' E 121°39'0 0.0
2014-Jul-17 13:05N 31°20' E 121°39'0 0.0
2014-Jul-17 12:29N 31°20' E 121°39'0 0.0
2014-Jul-17 08:29N 31°20' E 121°39'0 0.0
2014-Jul-17 07:29N 31°20' E 121°39'0 0.0
2014-Jul-17 05:11N 31°20' E 121°39'0 0.0
2014-Jul-17 04:23N 31°20' E 121°39'0 0.0
2014-Jul-17 01:11N 31°20' E 121°39'0 0.0
2014-Jul-16 22:29N 31°20' E 121°39'0 0.0
2014-Jul-16 21:29N 31°20' E 121°39'0 0.0
2014-Jul-16 20:17N 31°20' E 121°39'0 0.0
2014-Jul-16 19:17N 31°20' E 121°39'1 0.8
2014-Jul-16 18:33N 31°21' E 121°39'10 9.5
2014-Jul-16 17:30N 31°17' E 121°50'43 3.8
2014-Jul-16 06:14N 31°09' E 122°40'0 0.0
2014-Jul-15 17:32N 31°09' E 122°40'287 7.7
2014-Jul-14 04:30N 35°42' E 120°54'1212.6
2014-Jul-14 03:33N 35°52' E 120°48'1312.4
2014-Jul-14 02:31N 35°58' E 120°34'1212.2
2014-Jul-14 01:33N 36°01' E 120°20'6 1.9
2014-Jul-13 22:32N 36°01' E 120°13'0 0.0
2014-Jul-13 21:26N 36°01' E 120°13'0 0.0
2014-Jul-13 20:20N 36°01' E 120°13'0 0.0
2014-Jul-13 19:26N 36°01' E 120°13'0 0.0
2014-Jul-13 14:08N 36°01' E 120°13'0 0.0
2014-Jul-13 13:32N 36°01' E 120°13'0 0.0
2014-Jul-13 12:20N 36°01' E 120°13'5 2.5
2014-Jul-13 10:31N 36°02' E 120°18'9 9.6
2014-Jul-13 09:33N 35°60' E 120°30'10 9.8
2014-Jul-13 08:33N 35°58' E 120°41'  
Track history (hours):
 
Tides and Currents Weather Stations Pressure Air Temp Water Temp Dewpoint Dewpoint Depression Visibility Wind Speed Wind Dir Waves Ship Positions

Bangkok Bridge

Last reported at 2014-Jul-20 00:22 UTC. Time now 2014-Jul-23 20:14 UTC.
Position N 30°10' E 123°19'.

Length 267 m; draft 12.4 m.

Type: Ship (hazmat cat A). MMSI: 353368000.

Date/timePositionNaut miles runAvg speedWind from/ knotsBaromVisibWave heightAir tempDewpointWater temp
2014-Jul-20 00:22N 30°10' E 123°19'1620.3
2014-Jul-19 23:33N 30°02' E 123°03'2220.2
2014-Jul-19 22:27N 29°47' E 122°44'1819.6
2014-Jul-19 21:33N 29°41' E 122°25'1211.5
2014-Jul-19 20:33N 29°48' E 122°14'1212.3
2014-Jul-19 19:33N 29°55' E 122°03'1110.9
2014-Jul-19 18:33N 29°57' E 121°50'1 0.5
2014-Jul-19 17:29N 29°57' E 121°50'0 0.0
2014-Jul-19 16:29N 29°57' E 121°50'0 0.0
2014-Jul-19 15:23N 29°57' E 121°50'0 0.0
2014-Jul-19 14:29N 29°57' E 121°50'0 0.0
2014-Jul-19 13:29N 29°57' E 121°50'0 0.0
2014-Jul-19 12:29N 29°57' E 121°50'0 0.0
2014-Jul-19 11:29N 29°57' E 121°50'0 0.0
2014-Jul-19 10:29N 29°57' E 121°50'0 0.0
2014-Jul-19 09:29N 29°57' E 121°50'0 0.0
2014-Jul-19 08:29N 29°57' E 121°50'0 0.0
2014-Jul-19 07:23N 29°57' E 121°50'0 0.0
2014-Jul-19 06:29N 29°57' E 121°50'0 0.0
2014-Jul-19 05:29N 29°57' E 121°50'0 0.0
2014-Jul-19 04:29N 29°57' E 121°50'0 0.0
2014-Jul-19 03:29N 29°57' E 121°50'0 0.0
2014-Jul-19 02:29N 29°57' E 121°50'0 0.0
2014-Jul-19 01:29N 29°57' E 121°50'0 0.0
2014-Jul-19 00:29N 29°57' E 121°50'0 0.0
2014-Jul-18 23:29N 29°57' E 121°50'0 0.0
2014-Jul-18 22:29N 29°57' E 121°50'1 1.3
2014-Jul-18 21:33N 29°57' E 121°52'9 9.0
2014-Jul-18 20:33N 29°56' E 122°02'1111.3
2014-Jul-18 19:33N 29°50' E 122°13'9 8.9
2014-Jul-18 18:33N 29°45' E 122°21'3 2.6
2014-Jul-18 17:30N 29°45' E 122°24'0 0.1
2014-Jul-18 16:29N 29°45' E 122°24'0 0.1
2014-Jul-18 15:30N 29°45' E 122°24'0 0.2
2014-Jul-18 14:30N 29°44' E 122°24'0 0.0
2014-Jul-18 13:30N 29°44' E 122°24'0 0.1
2014-Jul-18 12:29N 29°44' E 122°25'0 0.1
2014-Jul-18 11:30N 29°44' E 122°25'0 0.1
2014-Jul-18 10:30N 29°45' E 122°25'0 0.1
2014-Jul-18 09:17N 29°45' E 122°25'0 0.1
2014-Jul-18 08:30N 29°45' E 122°25'0 0.1
2014-Jul-18 07:30N 29°45' E 122°25'0 0.1
2014-Jul-18 06:29N 29°45' E 122°24'6 5.9
2014-Jul-18 05:33N 29°42' E 122°30'1413.9
2014-Jul-18 04:33N 29°47' E 122°45'2216.7
2014-Jul-18 03:14N 30°01' E 123°05'2019.5
2014-Jul-18 02:12N 30°21' E 123°06'1619.5
2014-Jul-18 01:22N 30°37' E 123°00'1720.2
2014-Jul-18 00:33N 30°52' E 122°53'2015.9
2014-Jul-17 23:17N 31°04' E 122°34'911.8
2014-Jul-17 22:33N 31°06' E 122°25'1713.1
2014-Jul-17 21:15N 31°13' E 122°07'1513.0
2014-Jul-17 20:06N 31°17' E 121°50'712.1
2014-Jul-17 19:33N 31°20' E 121°42'3 2.4
2014-Jul-17 18:23N 31°20' E 121°39'0 0.0
2014-Jul-17 17:23N 31°20' E 121°39'0 0.0
2014-Jul-17 16:23N 31°20' E 121°39'0 0.0
2014-Jul-17 14:11N 31°20' E 121°39'0 0.0
2014-Jul-17 13:05N 31°20' E 121°39'0 0.0
2014-Jul-17 12:29N 31°20' E 121°39'0 0.0
2014-Jul-17 08:29N 31°20' E 121°39'0 0.0
2014-Jul-17 07:29N 31°20' E 121°39'0 0.0
2014-Jul-17 05:11N 31°20' E 121°39'0 0.0
2014-Jul-17 04:23N 31°20' E 121°39'0 0.0
2014-Jul-17 01:11N 31°20' E 121°39'0 0.0
2014-Jul-16 22:29N 31°20' E 121°39'0 0.0
2014-Jul-16 21:29N 31°20' E 121°39'0 0.0
2014-Jul-16 20:17N 31°20' E 121°39'0 0.0
2014-Jul-16 19:17N 31°20' E 121°39'1 0.8
2014-Jul-16 18:33N 31°21' E 121°39'10 9.5
2014-Jul-16 17:30N 31°17' E 121°50'43 3.8
2014-Jul-16 06:14N 31°09' E 122°40'0 0.0
2014-Jul-15 17:32N 31°09' E 122°40'287 7.7
2014-Jul-14 04:30N 35°42' E 120°54'1212.6
2014-Jul-14 03:33N 35°52' E 120°48'1312.4
2014-Jul-14 02:31N 35°58' E 120°34'1212.2
2014-Jul-14 01:33N 36°01' E 120°20'6 1.9
2014-Jul-13 22:32N 36°01' E 120°13'0 0.0
2014-Jul-13 21:26N 36°01' E 120°13'0 0.0
2014-Jul-13 20:20N 36°01' E 120°13'0 0.0
2014-Jul-13 19:26N 36°01' E 120°13'0 0.0
2014-Jul-13 14:08N 36°01' E 120°13'0 0.0
2014-Jul-13 13:32N 36°01' E 120°13'0 0.0
2014-Jul-13 12:20N 36°01' E 120°13'5 2.5
2014-Jul-13 10:31N 36°02' E 120°18'9 9.6
2014-Jul-13 09:33N 35°60' E 120°30'10 9.8
2014-Jul-13 08:33N 35°58' E 120°41'  

Dump ship's entire track history